Time;durP1;ratioP1;P1;durP2;ratioP2;P2;SDS_P1;SDS_P2;PMS_P1;PMS_P2;Temp;Humidity;BMP_temperature;BMP_pressure;BME280_temperature;BME280_humidity;BME280_pressure;Samples;Min_cycle;Max_cycle;Signal;HPM_P1;HPM_P2
2021/08/20 11:17:11;;;;;;;3.20;2.90;;;24.80;1.00;;;;;;4957843;28;20228;-87
2021/08/20 11:19:50;;;;;;;2.72;2.53;;;25.10;1.00;;;;;;4960701;28;20198;-90
2021/08/20 11:22:22;;;;;;;3.78;2.35;;;25.30;1.00;;;;;;4962854;28;20658;-88
2021/08/20 11:25:09;;;;;;;2.80;2.60;;;25.40;1.00;;;;;;4959380;28;20561;-86
2021/08/20 11:27:35;;;;;;;2.92;2.60;;;25.30;1.00;;;;;;4955406;28;20268;-84
2021/08/20 11:30:02;;;;;;;2.20;2.00;;;25.40;1.00;;;;;;4969956;28;20195;-86
2021/08/20 11:32:28;;;;;;;2.53;2.33;;;25.40;1.00;;;;;;4973385;28;20250;-85
2021/08/20 11:34:54;;;;;;;2.50;2.25;;;25.20;1.00;;;;;;4957575;28;20243;-84
2021/08/20 11:37:19;;;;;;;2.40;2.20;;;25.40;1.00;;;;;;4985369;28;20296;-84
2021/08/20 11:40:05;;;;;;;3.72;2.60;;;26.20;1.00;;;;;;4959752;28;20626;-86
2021/08/20 11:42:31;;;;;;;2.08;1.90;;;27.10;1.00;;;;;;4960708;28;20284;-85
2021/08/20 11:45:16;;;;;;;4.00;2.35;;;27.80;1.00;;;;;;4974010;28;20684;-85
2021/08/20 11:47:42;;;;;;;4.60;2.55;;;;;;;;;;4971643;28;20194;-86
2021/08/20 11:50:08;;;;;;;5.18;2.65;;;26.80;1.00;;;;;;4979531;28;20237;-85
2021/08/20 11:52:34;;;;;;;3.60;2.63;;;26.70;1.00;;;;;;4962022;29;20264;-87
2021/08/20 11:55:00;;;;;;;3.67;2.00;;;;;;;;;;4956807;28;20257;-86
2021/08/20 11:57:37;;;;;;;2.30;2.10;;;26.70;1.00;;;;;;4970564;28;20280;-87
2021/08/20 12:00:03;;;;;;;2.97;2.13;;;;;;;;;;4959308;28;20287;-91
2021/08/20 12:02:41;;;;;;;3.78;2.50;;;;;;;;;;4980230;28;20211;-91
2021/08/20 12:05:30;;;;;;;3.53;2.10;;;31.00;1.00;;;;;;4967706;28;20198;-90
2021/08/20 12:08:14;;;;;;;1.90;1.80;;;30.80;1.00;;;;;;4959810;28;20202;-91
2021/08/20 12:10:44;;;;;;;1.95;1.77;;;30.40;1.00;;;;;;4976612;28;20610;-91
2021/08/20 12:13:12;;;;;;;3.33;2.03;;;30.30;1.00;;;;;;4976119;28;20217;-90
2021/08/20 12:15:41;;;;;;;1.92;1.80;;;;;;;;;;4965510;28;20296;-89
2021/08/20 12:18:22;;;;;;;4.35;2.38;;;28.80;1.00;;;;;;4962854;28;20220;-89
2021/08/20 12:20:49;;;;;;;4.47;2.10;;;28.70;1.00;;;;;;4967956;28;20249;-88
2021/08/20 12:23:16;;;;;;;2.55;1.80;;;28.50;1.00;;;;;;4962631;29;20185;-90
2021/08/20 12:25:44;;;;;;;2.50;1.95;;;;;;;;;;4969040;28;20190;-89
2021/08/20 12:28:18;;;;;;;3.05;2.20;;;27.60;1.00;;;;;;4943620;29;20202;-89
2021/08/20 12:30:48;;;;;;;2.28;1.90;;;26.90;1.00;;;;;;4957901;29;20194;-89
2021/08/20 12:33:14;;;;;;;4.43;2.42;;;;;;;;;;4958465;29;20227;-88
2021/08/20 12:35:53;;;;;;;5.82;2.45;;;28.30;1.00;;;;;;4959064;28;20301;-90
2021/08/20 12:38:22;;;;;;;3.47;2.00;;;29.30;1.00;;;;;;4959245;29;20656;-90
2021/08/20 12:44:34;;;;;;;2.38;1.95;;;29.60;1.00;;;;;;4950814;28;20735;-89
2021/08/20 12:47:07;;;;;;;3.88;1.95;;;28.90;1.00;;;;;;4955999;29;20209;-89
2021/08/20 12:49:33;;;;;;;5.75;1.90;;;27.70;1.00;;;;;;4940028;29;20304;-90
2021/08/20 13:02:17;;;;;;;2.20;1.73;;;;;;;;;;4892715;29;20299;-91
2021/08/20 13:04:49;;;;;;;3.30;1.90;;;;;;;;;;4892906;29;20274;-92
2021/08/20 13:07:20;;;;;;;4.22;2.05;;;;;;;;;;4907726;29;20741;-92
2021/08/20 13:09:46;;;;;;;2.63;1.98;;;28.10;1.00;;;;;;4908898;29;20170;-88
2021/08/20 13:12:34;;;;;;;2.05;1.63;;;28.70;1.00;;;;;;4923931;29;20957;-90
2021/08/20 13:15:12;;;;;;;2.30;2.10;;;29.50;1.00;;;;;;4891768;29;20229;-91
2021/08/20 13:18:29;;;;;;;4.47;2.03;;;;;;;;;;4945389;29;20229;-93
2021/08/20 13:21:54;;;;;;;1.85;1.63;;;29.40;1.00;;;;;;4836805;29;20206;-94
2021/08/20 14:03:30;;;;;;;4.18;1.50;;;;;;;;;;4951203;28;20218;-87
2021/08/20 14:05:56;;;;;;;2.45;1.38;;;;;;;;;;4983566;28;20173;-86
2021/08/20 14:08:25;;;;;;;1.50;1.35;;;;;;;;;;4960591;28;20214;-86
2021/08/20 14:10:51;;;;;;;2.45;1.55;;;35.00;1.00;;;;;;4977049;28;20190;-86
2021/08/20 14:13:17;;;;;;;1.83;1.63;;;;;;;;;;4958691;28;20621;-86
2021/08/20 14:15:43;;;;;;;3.85;1.88;;;31.70;1.00;;;;;;4961257;28;20272;-86
2021/08/20 14:18:09;;;;;;;2.05;1.30;;;31.60;1.00;;;;;;4961780;28;20197;-87
2021/08/20 14:20:37;;;;;;;2.85;1.58;;;31.40;1.00;;;;;;4960868;28;20202;-87
2021/08/20 14:23:03;;;;;;;2.03;1.80;;;30.90;1.00;;;;;;4958479;28;20313;-86
2021/08/20 14:25:29;;;;;;;2.53;1.42;;;32.00;1.00;;;;;;4965858;28;20198;-86
2021/08/20 14:27:54;;;;;;;1.77;1.27;;;33.40;1.00;;;;;;4956003;28;20341;-85
2021/08/20 14:30:20;;;;;;;1.48;1.38;;;33.40;1.00;;;;;;4957397;28;20202;-85
2021/08/20 14:32:46;;;;;;;2.13;1.20;;;35.20;1.00;;;;;;4966503;28;20193;-86
2021/08/20 14:35:12;;;;;;;1.98;1.30;;;35.90;1.00;;;;;;4963117;28;20300;-87
2021/08/20 14:37:37;;;;;;;1.55;1.20;;;35.90;1.00;;;;;;4979532;28;20192;-87
2021/08/20 14:40:04;;;;;;;1.33;1.23;;;36.00;1.00;;;;;;4971939;28;20190;-84
2021/08/20 14:42:30;;;;;;;1.10;1.00;;;35.70;1.00;;;;;;4958050;29;20190;-83
2021/08/20 14:44:56;;;;;;;1.42;1.30;;;35.70;1.00;;;;;;4952162;28;20658;-83
2021/08/20 14:47:23;;;;;;;1.10;1.00;;;36.70;1.00;;;;;;4958902;28;20196;-83
2021/08/20 14:49:48;;;;;;;2.55;1.58;;;37.70;1.00;;;;;;4960536;28;20217;-83
2021/08/20 14:52:14;;;;;;;1.83;1.50;;;38.80;1.00;;;;;;4959183;28;20170;-83
2021/08/20 14:54:40;;;;;;;1.92;1.20;;;39.40;1.00;;;;;;4959813;28;20268;-83
2021/08/20 14:57:06;;;;;;;1.00;1.00;;;37.80;1.00;;;;;;4958081;28;20209;-83
2021/08/20 14:59:32;;;;;;;1.05;1.02;;;;;;;;;;4964365;28;20193;-83
2021/08/20 15:01:59;;;;;;;1.48;1.38;;;34.00;1.00;;;;;;4961368;28;20198;-82
2021/08/20 15:04:24;;;;;;;1.70;1.40;;;33.50;1.00;;;;;;4961726;29;20206;-83
2021/08/20 15:06:50;;;;;;;1.77;1.67;;;32.60;1.00;;;;;;4961709;28;20262;-82
2021/08/20 15:09:18;;;;;;;1.30;1.20;;;31.10;1.00;;;;;;4958777;28;20213;-84
2021/08/20 15:11:44;;;;;;;1.85;1.38;;;29.00;1.00;;;;;;4959192;28;20198;-83
2021/08/20 15:14:10;;;;;;;1.50;1.40;;;28.90;1.00;;;;;;4961864;29;20189;-83
2021/08/20 15:16:36;;;;;;;1.90;1.73;;;29.80;1.00;;;;;;4961713;28;20253;-82
2021/08/20 15:19:03;;;;;;;2.38;1.90;;;30.10;1.00;;;;;;4962956;29;20574;-83
2021/08/20 15:21:30;;;;;;;1.63;1.40;;;29.60;1.00;;;;;;4962211;29;20194;-81
2021/08/20 15:23:56;;;;;;;2.28;1.42;;;29.20;1.00;;;;;;4963664;29;20661;-84
2021/08/20 15:26:22;;;;;;;1.50;1.40;;;28.90;1.00;;;;;;4963856;29;20208;-84
2021/08/20 15:28:48;;;;;;;2.33;1.80;;;28.60;1.00;;;;;;4961531;28;20273;-83
2021/08/20 15:31:14;;;;;;;2.00;1.55;;;28.60;1.00;;;;;;4962138;28;20201;-83
2021/08/20 15:33:40;;;;;;;1.50;1.40;;;28.60;1.00;;;;;;4962393;29;20186;-85
2021/08/20 15:36:06;;;;;;;3.03;1.25;;;28.50;1.00;;;;;;4961946;28;20210;-85
2021/08/20 15:38:32;;;;;;;1.30;1.20;;;28.70;1.00;;;;;;4959218;28;20216;-84
2021/08/20 15:40:59;;;;;;;2.30;1.63;;;29.00;1.00;;;;;;4960630;29;20258;-84
2021/08/20 15:43:25;;;;;;;1.90;1.73;;;30.60;1.00;;;;;;4958493;28;20190;-84
2021/08/20 15:45:52;;;;;;;1.42;1.33;;;30.40;1.00;;;;;;4958141;28;20192;-85
2021/08/20 15:48:18;;;;;;;1.63;1.52;;;30.80;1.00;;;;;;4954668;28;20871;-88
2021/08/20 15:50:44;;;;;;;1.80;1.70;;;30.60;1.00;;;;;;4975654;28;20626;-88
2021/08/20 15:53:12;;;;;;;1.60;1.50;;;30.10;1.00;;;;;;4961360;29;20193;-88
2021/08/20 15:55:43;;;;;;;2.78;2.55;;;29.50;1.00;;;;;;4962419;28;20217;-87
2021/08/20 15:58:09;;;;;;;2.95;2.17;;;28.80;1.00;;;;;;4960567;28;20201;-88
2021/08/20 16:00:34;;;;;;;2.72;2.17;;;28.30;1.00;;;;;;4970722;28;20198;-89
2021/08/20 16:03:00;;;;;;;2.40;2.20;;;27.40;1.00;;;;;;4953669;28;20205;-87
2021/08/20 16:05:29;;;;;;;1.65;1.55;;;27.00;1.00;;;;;;4962123;29;20193;-88
2021/08/20 16:07:55;;;;;;;2.08;1.88;;;26.80;1.00;;;;;;4958832;28;20190;-85
2021/08/20 16:10:21;;;;;;;1.67;1.58;;;27.00;1.00;;;;;;4947005;28;20665;-89
2021/08/20 16:12:46;;;;;;;3.15;1.60;;;27.00;1.00;;;;;;4946207;28;20213;-86
2021/08/20 16:15:12;;;;;;;1.65;1.55;;;27.10;1.00;;;;;;4952520;28;20221;-86
2021/08/20 16:17:38;;;;;;;1.35;1.17;;;27.30;1.00;;;;;;4944243;28;20646;-87
2021/08/20 16:20:05;;;;;;;1.50;1.40;;;27.30;1.00;;;;;;4952839;28;20224;-86
2021/08/20 16:22:34;;;;;;;2.03;1.20;;;27.30;1.00;;;;;;4957522;28;20221;-85
2021/08/20 16:25:04;;;;;;;1.98;1.77;;;27.30;1.00;;;;;;4957788;28;20280;-86
2021/08/20 16:27:30;;;;;;;1.38;1.27;;;27.10;1.00;;;;;;4960145;28;20205;-87
2021/08/20 16:29:56;;;;;;;1.77;1.67;;;27.10;1.00;;;;;;4947992;28;20249;-85
2021/08/20 16:32:22;;;;;;;1.23;1.10;;;27.00;1.00;;;;;;4956538;28;20281;-85
2021/08/20 16:34:48;;;;;;;1.75;1.65;;;27.00;1.00;;;;;;4955820;28;20202;-85
2021/08/20 16:37:14;;;;;;;1.52;1.42;;;26.90;1.00;;;;;;4961000;28;20189;-86
2021/08/20 16:39:39;;;;;;;1.50;1.40;;;26.80;1.00;;;;;;4947224;29;20269;-86
2021/08/20 16:42:05;;;;;;;2.67;1.52;;;26.80;1.00;;;;;;4956618;28;20193;-85
2021/08/20 16:44:31;;;;;;;1.25;1.15;;;26.80;1.00;;;;;;4951986;29;20660;-85
2021/08/20 16:46:58;;;;;;;1.23;1.10;;;26.90;1.00;;;;;;4948167;28;20198;-85
2021/08/20 16:49:24;;;;;;;1.30;1.20;;;26.80;1.00;;;;;;4958631;28;20313;-85
2021/08/20 16:51:50;;;;;;;2.47;1.13;;;26.50;1.00;;;;;;4967862;28;20209;-85
2021/08/20 16:54:16;;;;;;;1.30;1.20;;;26.30;1.00;;;;;;4958398;29;20533;-85
2021/08/20 16:56:42;;;;;;;1.35;1.25;;;26.10;1.00;;;;;;4964592;28;20247;-86
2021/08/20 16:59:08;;;;;;;1.63;1.50;;;25.90;1.00;;;;;;4957470;28;20189;-86
2021/08/20 17:01:34;;;;;;;1.13;1.05;;;25.80;1.00;;;;;;4955256;29;20696;-85
2021/08/20 17:03:59;;;;;;;1.50;1.40;;;25.90;1.00;;;;;;4957590;28;20216;-85
2021/08/20 17:06:27;;;;;;;1.40;1.27;;;25.90;1.00;;;;;;4965012;28;20683;-88
2021/08/20 17:08:52;;;;;;;1.40;1.30;;;25.90;1.00;;;;;;4959106;28;20225;-85
2021/08/20 17:11:18;;;;;;;1.85;1.33;;;25.80;1.00;;;;;;4959721;29;20189;-85
2021/08/20 17:13:44;;;;;;;2.38;1.85;;;25.70;1.00;;;;;;4960163;28;20221;-87
2021/08/20 17:16:10;;;;;;;1.83;1.67;;;25.30;1.00;;;;;;4972869;28;20243;-86
2021/08/20 17:18:35;;;;;;;3.42;1.63;;;25.10;1.00;;;;;;4956957;28;20225;-86
2021/08/20 17:21:01;;;;;;;2.08;1.88;;;24.90;1.00;;;;;;4958553;28;20201;-84
2021/08/20 17:23:29;;;;;;;1.70;1.60;;;25.00;1.00;;;;;;4960248;29;20206;-84
2021/08/20 17:25:54;;;;;;;1.80;1.70;;;25.20;1.00;;;;;;4957842;28;20190;-86
2021/08/20 17:28:20;;;;;;;1.88;1.75;;;25.50;1.00;;;;;;4958286;28;20281;-84
2021/08/20 17:30:46;;;;;;;2.22;2.08;;;25.60;1.00;;;;;;4959206;29;20189;-85
2021/08/20 17:33:11;;;;;;;2.10;1.70;;;25.80;1.00;;;;;;4958003;29;20188;-85
2021/08/20 17:35:37;;;;;;;1.80;1.70;;;25.80;1.00;;;;;;4958920;28;20216;-82
2021/08/20 17:38:03;;;;;;;2.05;1.80;;;25.90;1.00;;;;;;4961311;28;20252;-83
2021/08/20 17:40:28;;;;;;;1.80;1.67;;;25.80;1.00;;;;;;4965229;28;20213;-84
2021/08/20 17:42:54;;;;;;;1.88;1.67;;;25.70;1.00;;;;;;4958748;28;20197;-84
2021/08/20 17:45:20;;;;;;;2.13;1.88;;;24.80;1.00;;;;;;4960959;28;20634;-84
2021/08/20 17:47:46;;;;;;;2.15;1.70;;;24.80;1.00;;;;;;4951864;28;20252;-84
2021/08/20 17:50:12;;;;;;;1.98;1.77;;;24.50;1.00;;;;;;4962373;28;20856;-84
2021/08/20 17:52:38;;;;;;;1.83;1.73;;;24.20;1.00;;;;;;4963101;28;20247;-83
2021/08/20 17:55:04;;;;;;;2.27;1.67;;;23.90;1.00;;;;;;4968204;28;20307;-83
2021/08/20 17:57:30;;;;;;;4.20;2.30;;;23.80;1.00;;;;;;4957183;28;20253;-82
2021/08/20 17:59:56;;;;;;;2.70;1.70;;;23.70;1.00;;;;;;4964306;29;20230;-82
2021/08/20 18:02:22;;;;;;;3.77;2.10;;;23.50;1.00;;;;;;4952633;28;20202;-83
2021/08/20 18:04:48;;;;;;;4.17;2.63;;;23.40;1.00;;;;;;4963050;28;20264;-83
2021/08/20 18:07:13;;;;;;;2.20;1.77;;;23.30;1.00;;;;;;4957805;28;20237;-83
2021/08/20 18:09:39;;;;;;;1.77;1.67;;;23.10;1.00;;;;;;4958809;28;20199;-82
2021/08/20 18:12:12;;;;;;;3.00;2.00;;;22.90;1.00;;;;;;4963973;28;20222;-82
2021/08/20 18:14:38;;;;;;;2.90;2.27;;;22.90;1.00;;;;;;4960879;28;20288;-83
2021/08/20 18:17:05;;;;;;;2.47;2.10;;;22.80;1.00;;;;;;4961403;29;20211;-84
2021/08/20 18:19:31;;;;;;;2.70;2.27;;;22.70;1.00;;;;;;4960527;28;20200;-84
2021/08/20 18:21:58;;;;;;;2.47;1.80;;;22.60;1.00;;;;;;4958991;28;20279;-84
2021/08/20 18:24:23;;;;;;;1.53;1.43;;;22.60;1.00;;;;;;4962300;28;20191;-84
2021/08/20 18:26:51;;;;;;;1.60;1.50;;;22.50;1.00;;;;;;4960524;28;20208;-85
2021/08/20 18:29:20;;;;;;;1.80;1.70;;;22.40;1.00;;;;;;4962454;28;20190;-86
2021/08/20 18:31:47;;;;;;;2.03;1.67;;;22.30;1.00;;;;;;4952229;28;20643;-83
2021/08/20 18:34:13;;;;;;;2.90;1.97;;;22.20;1.00;;;;;;4955019;28;20196;-83
2021/08/20 18:36:48;;;;;;;5.03;2.07;;;22.10;1.00;;;;;;4958154;28;20209;-82
2021/08/20 18:39:18;;;;;;;3.07;2.33;;;22.00;1.00;;;;;;4965555;28;20196;-82
2021/08/20 18:41:44;;;;;;;2.27;1.80;;;21.90;1.00;;;;;;4972409;28;20193;-84
2021/08/20 18:44:09;;;;;;;2.83;2.30;;;21.90;1.00;;;;;;4961880;28;20188;-84
2021/08/20 18:46:35;;;;;;;4.53;2.50;;;21.80;1.00;;;;;;4956412;28;20226;-83
2021/08/20 18:49:02;;;;;;;2.03;1.83;;;21.70;1.00;;;;;;4961542;28;20191;-84
2021/08/20 18:51:29;;;;;;;2.03;1.90;;;;;;;;;;4964311;28;20202;-83
2021/08/20 18:53:55;;;;;;;3.00;2.00;;;21.60;1.00;;;;;;4961884;28;20193;-83
2021/08/20 18:56:21;;;;;;;3.93;1.90;;;23.10;1.00;;;;;;4963525;28;20197;-83
2021/08/20 18:58:47;;;;;;;2.20;1.67;;;21.60;1.00;;;;;;4963057;28;20455;-82
2021/08/20 19:01:13;;;;;;;3.53;2.10;;;;;;;;;;4957368;28;20277;-82
2021/08/20 19:03:39;;;;;;;1.67;1.57;;;;;;;;;;4954357;28;20218;-84
2021/08/20 19:06:05;;;;;;;1.90;1.70;;;21.40;1.00;;;;;;4962136;28;20253;-83
2021/08/20 19:08:31;;;;;;;3.43;1.77;;;;;;;;;;4962066;28;20235;-82
2021/08/20 19:11:00;;;;;;;2.13;1.93;;;21.30;1.00;;;;;;4959851;28;20651;-82
2021/08/20 19:13:27;;;;;;;4.43;2.83;;;21.30;1.00;;;;;;4956173;28;20214;-82
2021/08/20 19:15:52;;;;;;;4.00;3.40;;;21.30;1.00;;;;;;4962581;28;20317;-83
2021/08/20 19:18:18;;;;;;;3.80;3.47;;;21.20;1.00;;;;;;4961978;28;20197;-84
2021/08/20 19:20:44;;;;;;;11.00;8.47;;;21.10;1.00;;;;;;4960428;28;20604;-83
2021/08/20 19:23:10;;;;;;;21.57;16.23;;;21.00;1.00;;;;;;4956166;28;20197;-84
2021/08/20 19:25:35;;;;;;;4.37;3.90;;;20.90;1.00;;;;;;4959958;28;20599;-83
2021/08/20 19:28:03;;;;;;;3.37;2.47;;;20.80;1.00;;;;;;4964782;28;20210;-84
2021/08/20 19:30:29;;;;;;;3.73;2.60;;;20.80;1.00;;;;;;4961544;28;20221;-84
2021/08/20 19:32:55;;;;;;;6.67;5.17;;;20.80;1.00;;;;;;4961502;28;20211;-83
2021/08/20 19:35:21;;;;;;;7.40;5.00;;;20.60;1.00;;;;;;4954920;28;20218;-83
2021/08/20 19:37:48;;;;;;;4.67;2.20;;;20.60;1.00;;;;;;4963765;28;20205;-83
2021/08/20 19:40:14;;;;;;;5.33;2.23;;;20.50;1.00;;;;;;4959455;28;20197;-83
2021/08/20 19:42:41;;;;;;;3.27;2.33;;;20.50;1.00;;;;;;4961572;28;20205;-84
2021/08/20 19:45:09;;;;;;;3.50;2.10;;;20.40;1.00;;;;;;4958588;28;20198;-83
2021/08/20 19:47:35;;;;;;;2.50;2.20;;;20.40;1.00;;;;;;4958480;28;20183;-83
2021/08/20 19:50:02;;;;;;;2.47;2.27;;;20.30;1.00;;;;;;4974325;28;24622;-83
2021/08/20 19:52:29;;;;;;;2.33;1.90;;;20.20;1.00;;;;;;4959286;28;20194;-83
2021/08/20 19:55:01;;;;;;;3.23;2.40;;;20.10;1.00;;;;;;4956929;28;20257;-83
2021/08/20 19:57:27;;;;;;;4.30;3.60;;;20.10;1.00;;;;;;4964564;28;20206;-82
2021/08/20 19:59:53;;;;;;;5.23;3.13;;;19.90;1.00;;;;;;4981675;28;20202;-84
2021/08/20 20:02:20;;;;;;;4.73;2.47;;;;;;;;;;4964992;28;20292;-84
2021/08/20 20:04:46;;;;;;;6.20;2.47;;;;;;;;;;4957329;28;20197;-84
2021/08/20 20:07:12;;;;;;;3.27;2.80;;;;;;;;;;4969633;28;20176;-83
2021/08/20 20:09:38;;;;;;;4.67;2.73;;;19.90;1.00;;;;;;4962261;28;20194;-85
2021/08/20 20:12:05;;;;;;;3.73;2.40;;;20.00;1.00;;;;;;4957647;28;20215;-83
2021/08/20 20:14:33;;;;;;;3.07;2.53;;;20.00;1.00;;;;;;4960415;28;20682;-84
2021/08/20 20:16:59;;;;;;;3.60;2.20;;;19.90;1.00;;;;;;4962819;28;20195;-84
2021/08/20 20:19:25;;;;;;;3.43;2.43;;;;;;;;;;4954413;29;20189;-87
2021/08/20 20:22:00;;;;;;;3.93;2.40;;;20.00;1.00;;;;;;4966715;28;20197;-84
2021/08/20 20:24:27;;;;;;;11.33;8.10;;;;;;;;;;4970341;28;20207;-83
2021/08/20 20:26:55;;;;;;;41.03;30.70;;;20.00;1.00;;;;;;4974747;28;20208;-85
2021/08/20 20:29:21;;;;;;;7.13;4.90;;;;;;;;;;4938143;29;20602;-84
2021/08/20 20:31:47;;;;;;;5.73;3.20;;;;;;;;;;4927493;28;20300;-83
2021/08/20 20:34:12;;;;;;;6.83;3.40;;;20.00;1.00;;;;;;4933058;29;20207;-82
2021/08/20 20:36:39;;;;;;;5.23;3.60;;;;;;;;;;4947889;29;20269;-84
2021/08/20 20:39:04;;;;;;;5.20;3.50;;;19.80;1.00;;;;;;4942542;29;20215;-83
2021/08/20 20:41:31;;;;;;;5.27;3.40;;;19.70;1.00;;;;;;4964163;28;20206;-83
2021/08/20 20:43:56;;;;;;;4.30;3.77;;;19.70;1.00;;;;;;4946044;29;20260;-83
2021/08/20 20:46:22;;;;;;;4.87;2.63;;;19.60;1.00;;;;;;4941728;29;20309;-82
2021/08/20 20:48:48;;;;;;;3.20;2.53;;;19.80;1.00;;;;;;4936953;29;20216;-81
2021/08/20 20:51:15;;;;;;;3.77;2.53;;;19.80;1.00;;;;;;4957007;28;20224;-82
2021/08/20 20:53:43;;;;;;;4.57;2.77;;;19.70;1.00;;;;;;4949972;29;20204;-84
2021/08/20 20:56:09;;;;;;;2.90;2.20;;;19.70;1.00;;;;;;4943159;29;20319;-84
2021/08/20 20:58:34;;;;;;;2.20;2.00;;;19.70;1.00;;;;;;4960453;28;20247;-83
2021/08/20 21:01:00;;;;;;;5.90;2.30;;;19.70;1.00;;;;;;4957818;28;20231;-81
2021/08/20 21:03:26;;;;;;;2.10;1.87;;;19.70;1.00;;;;;;4959804;28;20201;-83
2021/08/20 21:05:52;;;;;;;3.07;1.80;;;19.70;1.00;;;;;;4962794;28;20288;-83
2021/08/20 21:08:18;;;;;;;3.57;2.77;;;19.60;1.00;;;;;;4960483;28;20631;-82
2021/08/20 21:10:43;;;;;;;2.47;2.17;;;19.60;1.00;;;;;;4959445;28;20195;-82
2021/08/20 21:13:09;;;;;;;1.93;1.83;;;19.50;1.00;;;;;;4957754;29;20227;-82
2021/08/20 21:15:35;;;;;;;2.23;1.87;;;19.40;1.00;;;;;;4960479;28;20314;-83
2021/08/20 21:18:00;;;;;;;3.23;2.10;;;19.40;1.00;;;;;;4960677;28;20185;-83
2021/08/20 21:20:26;;;;;;;2.40;2.20;;;19.30;1.00;;;;;;4957432;28;20204;-84
2021/08/20 21:22:52;;;;;;;2.37;1.97;;;19.20;1.00;;;;;;4960936;28;20210;-83
2021/08/20 21:25:18;;;;;;;2.37;1.87;;;19.20;1.00;;;;;;4959051;28;20258;-84
2021/08/20 21:27:44;;;;;;;3.33;2.47;;;19.20;1.00;;;;;;4957263;28;20202;-85
2021/08/20 21:30:10;;;;;;;3.77;2.03;;;19.20;1.00;;;;;;4956352;28;20192;-84
2021/08/20 21:32:37;;;;;;;2.90;2.10;;;19.20;1.00;;;;;;4953809;28;20220;-86
2021/08/20 21:35:04;;;;;;;3.47;2.03;;;19.30;1.00;;;;;;4967379;28;20682;-86
2021/08/20 21:37:30;;;;;;;2.07;1.80;;;19.40;1.00;;;;;;4958593;28;20222;-86
2021/08/20 21:39:56;;;;;;;1.90;1.70;;;19.30;1.00;;;;;;4950820;28;20195;-84
2021/08/20 21:42:22;;;;;;;3.10;2.20;;;19.30;1.00;;;;;;4962919;28;20187;-85
2021/08/20 21:44:47;;;;;;;2.20;2.00;;;19.10;1.00;;;;;;4964665;28;20267;-86
2021/08/20 21:47:13;;;;;;;4.83;1.70;;;19.00;1.00;;;;;;4954918;28;20191;-85
2021/08/20 21:49:39;;;;;;;3.10;2.57;;;19.10;1.00;;;;;;4956168;28;20210;-85
2021/08/20 21:52:05;;;;;;;2.33;2.10;;;19.00;1.00;;;;;;4959939;29;20285;-85
2021/08/20 21:54:31;;;;;;;2.80;2.10;;;19.00;1.00;;;;;;4959627;28;20195;-85
2021/08/20 21:56:57;;;;;;;3.83;2.23;;;;;;;;;;4957934;28;20241;-84
2021/08/20 21:59:23;;;;;;;2.10;1.87;;;18.90;1.00;;;;;;4962607;28;20222;-85
2021/08/20 22:01:48;;;;;;;2.77;1.60;;;18.90;1.00;;;;;;4958369;28;20715;-85
2021/08/20 22:04:14;;;;;;;2.83;2.00;;;18.80;1.00;;;;;;4955792;28;20225;-85
2021/08/20 22:06:40;;;;;;;3.30;2.17;;;18.80;1.00;;;;;;4974170;28;20201;-85
2021/08/20 22:09:06;;;;;;;2.30;2.10;;;18.80;1.00;;;;;;4955868;28;20182;-86
2021/08/20 22:11:31;;;;;;;3.57;2.23;;;18.70;1.00;;;;;;4942172;29;20199;-86
2021/08/20 22:13:57;;;;;;;2.67;2.43;;;18.60;1.00;;;;;;4959183;28;20186;-85
2021/08/20 22:16:23;;;;;;;2.83;2.20;;;18.60;1.00;;;;;;4960146;28;20700;-85
2021/08/20 22:18:52;;;;;;;4.17;2.07;;;18.50;1.00;;;;;;4956664;28;20195;-84
2021/08/20 22:21:17;;;;;;;2.60;2.33;;;18.50;1.00;;;;;;4955773;28;20210;-82
2021/08/20 22:23:43;;;;;;;2.43;2.23;;;;;;;;;;4956889;28;20191;-84
2021/08/20 22:26:09;;;;;;;2.23;2.03;;;18.50;1.00;;;;;;4953798;28;20190;-84
2021/08/20 22:28:36;;;;;;;2.90;1.90;;;18.40;1.00;;;;;;4962956;28;20193;-85
2021/08/20 22:31:01;;;;;;;3.90;2.00;;;18.20;1.00;;;;;;4962132;28;20194;-84
2021/08/20 22:33:29;;;;;;;4.47;1.90;;;18.20;1.00;;;;;;4963272;28;20202;-84
2021/08/20 22:35:55;;;;;;;3.20;2.00;;;;;;;;;;4962638;28;20225;-84
2021/08/20 22:38:21;;;;;;;3.20;2.67;;;;;;;;;;4959729;28;20191;-84
2021/08/20 22:40:47;;;;;;;3.17;2.10;;;18.10;1.00;;;;;;4956244;28;20201;-84
2021/08/20 22:43:12;;;;;;;2.33;2.13;;;18.10;1.00;;;;;;4948099;28;20201;-84
2021/08/20 22:45:38;;;;;;;2.90;2.10;;;18.10;1.00;;;;;;4977081;28;20194;-85
2021/08/20 22:48:04;;;;;;;3.17;2.03;;;18.10;1.00;;;;;;4956695;28;20198;-84
2021/08/20 22:50:29;;;;;;;2.50;2.30;;;18.00;1.00;;;;;;4958477;28;20306;-84
2021/08/20 22:52:55;;;;;;;2.50;2.30;;;18.00;1.00;;;;;;4947213;28;20197;-84
2021/08/20 22:55:21;;;;;;;3.53;2.57;;;17.80;1.00;;;;;;4956403;28;20215;-84
2021/08/20 22:57:49;;;;;;;4.73;2.57;;;17.80;1.00;;;;;;4965022;29;20255;-85
2021/08/20 23:00:25;;;;;;;2.47;2.00;;;17.70;1.00;;;;;;4967701;28;20179;-86
2021/08/20 23:02:52;;;;;;;3.87;2.30;;;17.60;1.00;;;;;;4962166;29;20205;-85
2021/08/20 23:05:18;;;;;;;2.50;2.30;;;17.60;1.00;;;;;;4959447;28;20193;-85
2021/08/20 23:07:44;;;;;;;2.37;2.10;;;17.50;1.00;;;;;;4964310;28;20202;-85
2021/08/20 23:10:12;;;;;;;3.00;2.47;;;17.50;1.00;;;;;;4979491;28;20745;-84
2021/08/20 23:12:39;;;;;;;4.07;2.03;;;17.50;1.00;;;;;;4960952;28;20284;-84
2021/08/20 23:15:07;;;;;;;2.70;2.20;;;17.40;1.00;;;;;;4978677;28;20198;-84
2021/08/20 23:17:32;;;;;;;3.03;2.63;;;17.30;1.00;;;;;;4952835;28;20190;-84
2021/08/20 23:19:58;;;;;;;3.10;2.50;;;17.20;1.00;;;;;;4960978;29;20191;-85
2021/08/20 23:22:24;;;;;;;3.17;2.87;;;17.20;1.00;;;;;;4949594;29;20201;-84
2021/08/20 23:24:50;;;;;;;4.47;2.60;;;17.20;1.00;;;;;;4963603;28;20202;-85
2021/08/20 23:27:16;;;;;;;4.20;2.60;;;17.10;1.00;;;;;;4960641;28;20247;-84
2021/08/20 23:29:41;;;;;;;4.50;2.53;;;17.10;1.00;;;;;;4960205;28;20340;-84
2021/08/20 23:32:08;;;;;;;4.63;2.80;;;17.10;1.00;;;;;;4958740;28;20207;-84
2021/08/20 23:34:34;;;;;;;3.87;2.70;;;17.10;1.00;;;;;;4960568;28;20201;-84
2021/08/20 23:36:59;;;;;;;4.23;2.33;;;17.10;1.00;;;;;;4961236;28;20253;-84
2021/08/20 23:39:25;;;;;;;2.83;2.33;;;17.00;1.00;;;;;;4959615;28;20549;-85
2021/08/20 23:41:51;;;;;;;3.20;2.47;;;16.90;1.00;;;;;;4951107;28;20261;-85
2021/08/20 23:44:17;;;;;;;3.00;2.50;;;16.90;1.00;;;;;;4950181;28;20189;-84
2021/08/20 23:46:42;;;;;;;3.30;2.60;;;16.90;1.00;;;;;;4961983;28;20550;-84
2021/08/20 23:49:09;;;;;;;3.70;2.80;;;;;;;;;;4963005;28;20196;-85
2021/08/20 23:51:35;;;;;;;3.43;2.67;;;16.90;1.00;;;;;;4965812;28;20264;-84
2021/08/20 23:54:01;;;;;;;6.57;2.77;;;16.90;1.00;;;;;;4945281;28;20200;-85
2021/08/20 23:56:27;;;;;;;3.40;2.47;;;16.80;1.00;;;;;;4930329;28;20622;-85
2021/08/20 23:58:53;;;;;;;5.80;2.30;;;16.70;1.00;;;;;;4962038;28;20193;-84
